Time;durP1;ratioP1;P1;durP2;ratioP2;P2;SDS_P1;SDS_P2;PMS_P1;PMS_P2;Temp;Humidity;BMP_temperature;BMP_pressure;BME280_temperature;BME280_humidity;BME280_pressure;Samples;Min_cycle;Max_cycle;Signal;HPM_P1;HPM_P2
2021/03/13 00:01:21;;;;;;;9.00;3.60;;;;;;;6.46;71.31;98297.63;4987197;28;20038;-71
2021/03/13 00:03:46;;;;;;;8.02;3.63;;;;;;;6.46;71.49;98297.63;4986616;28;20645;-69
2021/03/13 00:06:12;;;;;;;6.32;3.88;;;;;;;6.48;70.76;98293.16;4987531;28;20038;-72
2021/03/13 00:08:38;;;;;;;9.60;3.35;;;;;;;6.52;70.93;98284.22;4976749;28;20485;-72
2021/03/13 00:11:06;;;;;;;8.93;3.80;;;;;;;6.77;70.65;98288.88;4986718;28;20096;-47
2021/03/13 00:13:32;;;;;;;11.18;3.92;;;;;;;7.28;68.90;98283.28;4986803;28;20498;-48
2021/03/13 00:15:58;;;;;;;7.28;3.60;;;;;;;7.20;68.18;98280.28;4984598;28;20058;-70
2021/03/13 00:18:23;;;;;;;5.45;3.35;;;;;;;6.92;68.96;98278.44;4999494;28;20044;-68
2021/03/13 00:20:48;;;;;;;8.00;4.30;;;;;;;6.80;68.62;98269.53;4978301;28;20039;-68
2021/03/13 00:23:14;;;;;;;8.43;3.88;;;;;;;6.75;68.84;98276.81;4975447;28;20038;-69
2021/03/13 00:25:40;;;;;;;11.48;5.10;;;;;;;6.73;69.79;98276.06;4984469;28;20054;-68
2021/03/13 00:28:06;;;;;;;12.88;4.82;;;;;;;6.72;70.06;98269.09;4987074;28;20541;-69
2021/03/13 00:30:39;;;;;;;9.43;5.50;;;;;;;6.65;69.67;98268.63;4989096;28;20061;-69
2021/03/13 00:33:07;;;;;;;9.13;3.30;;;;;;;6.60;70.12;98266.28;4989580;28;20128;-69
2021/03/13 00:35:32;;;;;;;9.45;3.35;;;;;;;6.53;70.76;98259.72;4980430;28;20038;-69
2021/03/13 00:38:01;;;;;;;9.07;3.40;;;;;;;6.49;71.11;98259.97;4970326;28;20453;-68
2021/03/13 00:40:29;;;;;;;6.32;3.30;;;;;;;6.40;71.04;98258.72;5002737;28;20500;-70
2021/03/13 00:42:55;;;;;;;6.22;3.97;;;;;;;6.35;71.68;98263.34;4982240;28;20049;-69
2021/03/13 00:45:23;;;;;;;9.55;3.72;;;;;;;6.31;72.30;98256.63;4975537;28;20035;-69
2021/03/13 00:47:49;;;;;;;6.80;3.60;;;;;;;6.23;72.69;98250.06;4968446;28;20433;-69
2021/03/13 00:50:18;;;;;;;8.43;3.50;;;;;;;6.17;73.18;98247.75;4968429;28;20045;-69
2021/03/13 00:52:44;;;;;;;7.72;3.67;;;;;;;6.16;73.26;98232.16;4968276;28;20066;-70
2021/03/13 00:55:10;;;;;;;6.40;3.60;;;;;;;6.11;73.80;98232.44;4970357;28;20521;-70
2021/03/13 00:57:36;;;;;;;7.55;3.25;;;;;;;6.08;74.16;98226.50;4967110;28;20127;-70
2021/03/13 01:00:07;;;;;;;6.32;3.15;;;;;;;6.02;74.21;98217.22;4970986;28;20125;-68
2021/03/13 01:02:33;;;;;;;6.20;3.50;;;;;;;6.04;74.65;98217.16;4971133;28;20039;-69
2021/03/13 01:04:58;;;;;;;5.75;3.22;;;;;;;6.03;75.14;98205.84;4972921;28;20085;-69
2021/03/13 01:07:24;;;;;;;6.10;3.42;;;;;;;6.01;74.81;98207.72;4973102;28;20670;-68
2021/03/13 01:09:50;;;;;;;7.80;4.45;;;;;;;5.94;75.28;98208.97;4973697;28;20125;-68
2021/03/13 01:12:16;;;;;;;4.60;3.25;;;;;;;5.88;75.04;98194.44;4972474;28;20038;-69
2021/03/13 01:14:41;;;;;;;8.32;4.93;;;;;;;5.88;76.03;98189.22;4973062;28;20035;-70
2021/03/13 01:17:07;;;;;;;6.95;3.90;;;;;;;5.87;76.06;98184.91;4973391;28;20046;-69
2021/03/13 01:19:32;;;;;;;14.60;3.75;;;;;;;5.85;75.48;98178.91;4973328;28;20486;-69
2021/03/13 01:21:57;;;;;;;8.60;3.40;;;;;;;5.82;75.63;98171.25;4973293;28;20486;-69
2021/03/13 01:24:23;;;;;;;8.02;2.65;;;;;;;5.78;75.71;98162.75;4972612;28;20490;-69
2021/03/13 01:26:48;;;;;;;10.93;4.05;;;;;;;5.77;76.76;98155.81;4973209;28;20097;-69
2021/03/13 01:29:14;;;;;;;7.78;3.45;;;;;;;5.73;76.66;98143.81;4972507;28;20039;-70
2021/03/13 01:31:40;;;;;;;9.73;3.35;;;;;;;5.73;76.50;98138.59;4973124;28;20035;-69
2021/03/13 01:34:05;;;;;;;4.50;3.30;;;;;;;5.76;76.30;98132.38;4972477;28;20050;-69
2021/03/13 01:36:30;;;;;;;7.97;2.97;;;;;;;5.74;76.51;98131.63;4980636;28;20050;-68
2021/03/13 01:38:56;;;;;;;10.20;2.97;;;;;;;5.67;76.42;98125.88;4973214;28;20066;-69
2021/03/13 01:41:21;;;;;;;2.92;2.00;;;;;;;5.65;76.67;98121.66;4972805;28;20038;-69
2021/03/13 01:43:47;;;;;;;8.23;2.45;;;;;;;5.65;76.24;98119.06;4979277;28;20039;-68
2021/03/13 01:46:13;;;;;;;6.60;2.97;;;;;;;5.63;76.42;98105.22;4979874;28;20039;-69
2021/03/13 01:48:46;;;;;;;6.45;2.58;;;;;;;5.59;77.13;98105.41;4971443;28;20043;-69
2021/03/13 01:51:12;;;;;;;5.85;3.63;;;;;;;5.56;77.10;98091.63;4973126;28;20047;-69
2021/03/13 01:53:37;;;;;;;6.28;2.80;;;;;;;5.57;77.04;98093.34;4972726;28;20083;-68
2021/03/13 01:56:03;;;;;;;5.10;2.60;;;;;;;5.60;77.73;98087.94;4972967;28;20030;-69
2021/03/13 01:58:28;;;;;;;9.27;2.70;;;;;;;5.57;76.91;98073.28;4972597;28;20402;-70
2021/03/13 02:00:54;;;;;;;5.68;2.17;;;;;;;5.60;76.57;98069.63;4959673;28;20038;-69
2021/03/13 02:03:19;;;;;;;5.22;2.25;;;;;;;5.66;77.12;98069.31;4971240;28;20039;-69
2021/03/13 02:05:46;;;;;;;6.00;1.85;;;;;;;5.64;76.31;98057.25;4970060;28;20482;-69
2021/03/13 02:08:27;;;;;;;3.17;1.90;;;;;;;5.65;76.50;98065.00;4971612;28;20035;-69
2021/03/13 02:11:22;;;;;;;5.65;2.00;;;;;;;5.62;76.28;98033.81;4972097;28;20031;-69
2021/03/13 02:14:13;;;;;;;6.88;2.95;;;;;;;5.65;76.60;98028.38;4968860;28;20053;-68
2021/03/13 02:16:42;;;;;;;7.57;2.70;;;;;;;5.62;76.51;98025.97;4972036;28;20050;-69
2021/03/13 02:19:42;;;;;;;12.00;2.13;;;;;;;5.68;76.84;98020.38;4970583;28;20522;-69
2021/03/13 02:22:12;;;;;;;2.28;1.58;;;;;;;5.73;76.54;98012.25;4958256;28;20027;-71
2021/03/13 02:24:59;;;;;;;5.75;2.60;;;;;;;5.77;76.23;98004.16;4988006;28;20110;-70
2021/03/13 02:27:30;;;;;;;9.45;2.38;;;;;;;5.84;75.79;97995.97;4991163;28;20459;-71
2021/03/13 02:30:03;;;;;;;3.42;1.88;;;;;;;5.90;76.08;97985.13;4990010;28;20101;-69
2021/03/13 02:32:54;;;;;;;4.53;1.70;;;;;;;5.87;76.17;97980.91;4990819;28;20031;-68
2021/03/13 02:35:25;;;;;;;4.82;1.35;;;;;;;5.89;75.83;97979.06;4991587;28;20046;-69
2021/03/13 02:37:53;;;;;;;2.55;1.60;;;;;;;5.88;76.49;97976.53;4988917;28;20075;-69
2021/03/13 02:40:24;;;;;;;4.47;1.65;;;;;;;5.88;76.39;97955.59;5006792;28;20371;-69
2021/03/13 02:42:53;;;;;;;2.90;1.48;;;;;;;5.89;75.98;97955.53;4961299;28;20086;-69
2021/03/13 02:45:23;;;;;;;8.32;1.83;;;;;;;5.94;75.92;97955.28;4971972;28;20039;-69
2021/03/13 02:47:50;;;;;;;2.92;1.77;;;;;;;5.95;75.69;97952.56;4970348;28;20031;-69
2021/03/13 02:50:16;;;;;;;4.28;1.85;;;;;;;5.97;76.09;97932.38;4971470;28;20081;-70
2021/03/13 02:52:42;;;;;;;6.47;1.50;;;;;;;5.99;76.00;97930.53;4969764;28;20043;-68
2021/03/13 02:55:11;;;;;;;3.67;1.80;;;;;;;6.02;76.02;97927.72;4971532;28;20039;-69
2021/03/13 02:57:39;;;;;;;1.80;1.30;;;;;;;6.04;75.21;97906.72;4971334;28;20046;-69
2021/03/13 03:00:06;;;;;;;6.50;2.03;;;;;;;6.08;75.76;97900.38;4971515;28;20117;-69
2021/03/13 03:02:34;;;;;;;5.68;1.60;;;;;;;6.12;75.82;97901.84;4971236;28;20031;-69
2021/03/13 03:05:01;;;;;;;5.60;2.22;;;;;;;6.16;75.22;97878.97;4971528;28;20031;-70
2021/03/13 03:07:27;;;;;;;4.88;1.67;;;;;;;6.19;75.02;97886.63;4975891;28;20521;-69
2021/03/13 03:09:53;;;;;;;4.03;1.52;;;;;;;6.24;75.26;97879.31;4998457;28;20035;-69
2021/03/13 03:12:19;;;;;;;2.47;1.55;;;;;;;6.27;75.24;97873.88;4998767;28;20034;-69
2021/03/13 03:14:46;;;;;;;4.28;1.60;;;;;;;6.28;75.81;97849.41;4990621;28;20054;-70
2021/03/13 03:17:12;;;;;;;2.90;1.48;;;;;;;6.29;75.31;97842.41;4990301;28;20404;-69
2021/03/13 03:19:40;;;;;;;2.58;1.38;;;;;;;6.33;75.35;97849.97;4989588;28;20045;-69
2021/03/13 03:22:06;;;;;;;5.43;2.13;;;;;;;6.37;75.01;97845.38;4990087;28;20034;-69
2021/03/13 03:24:33;;;;;;;3.08;1.80;;;;;;;6.41;74.90;97829.38;4990727;28;20559;-69
2021/03/13 03:26:59;;;;;;;4.15;2.40;;;;;;;6.46;74.94;97847.41;4989418;28;20750;-70
2021/03/13 03:29:26;;;;;;;3.63;1.50;;;;;;;6.48;74.79;97824.59;4990634;28;20100;-69
2021/03/13 03:31:51;;;;;;;9.45;2.80;;;;;;;6.49;75.39;97820.19;4990654;28;20036;-70
2021/03/13 03:34:16;;;;;;;4.28;2.35;;;;;;;6.47;75.28;97809.81;4988898;28;20034;-69
2021/03/13 03:36:42;;;;;;;6.85;1.63;;;;;;;6.51;74.99;97792.16;4989756;28;20069;-69
2021/03/13 03:39:09;;;;;;;7.85;2.30;;;;;;;6.49;74.89;97781.75;4989055;28;20089;-69
2021/03/13 03:41:36;;;;;;;5.53;1.70;;;;;;;6.52;75.13;97783.34;4989182;28;20038;-70
2021/03/13 03:44:05;;;;;;;5.97;1.83;;;;;;;6.54;75.41;97792.78;4988726;28;20042;-69
2021/03/13 03:46:35;;;;;;;10.38;2.17;;;;;;;6.53;75.63;97785.88;4991163;28;20053;-69
2021/03/13 03:49:04;;;;;;;3.25;1.60;;;;;;;6.51;75.77;97764.19;4993065;28;20899;-71
2021/03/13 03:51:30;;;;;;;6.90;2.33;;;;;;;6.50;76.30;97754.66;4987481;28;20030;-69
2021/03/13 03:53:57;;;;;;;5.65;1.77;;;;;;;6.47;76.48;97749.59;4973378;28;20086;-69
2021/03/13 03:56:24;;;;;;;5.88;2.03;;;;;;;6.43;76.48;97750.75;4982157;28;20031;-69
2021/03/13 03:58:52;;;;;;;12.45;2.17;;;;;;;6.40;76.54;97736.09;4988729;28;20034;-69
2021/03/13 04:01:22;;;;;;;7.75;1.92;;;;;;;6.38;77.17;97737.97;4990149;28;20031;-69
2021/03/13 04:03:51;;;;;;;5.05;1.83;;;;;;;6.38;75.98;97724.88;4989657;28;20042;-70
2021/03/13 04:06:17;;;;;;;11.90;2.47;;;;;;;6.37;76.45;97720.56;4989884;28;20034;-69
2021/03/13 04:09:09;;;;;;;6.45;2.50;;;;;;;6.35;76.62;97714.63;4989681;28;20089;-69
2021/03/13 04:11:50;;;;;;;8.68;2.42;;;;;;;6.32;76.60;97704.34;4983391;28;20085;-71
2021/03/13 04:14:18;;;;;;;7.63;2.03;;;;;;;6.34;76.73;97712.09;4981039;28;20090;-70
2021/03/13 04:17:08;;;;;;;4.50;1.83;;;;;;;6.33;76.85;97697.34;4985139;28;21071;-70
2021/03/13 04:19:36;;;;;;;4.57;1.83;;;;;;;6.30;77.06;97694.91;4973609;28;20490;-70
2021/03/13 04:22:11;;;;;;;4.53;2.22;;;;;;;6.31;77.34;97675.69;4989618;28;20070;-70
2021/03/13 04:24:53;;;;;;;3.80;1.67;;;;;;;6.33;77.12;97681.66;4989862;28;20053;-69
2021/03/13 04:27:34;;;;;;;6.10;1.60;;;;;;;6.33;77.23;97674.63;4989248;28;20049;-69
2021/03/13 04:30:00;;;;;;;5.75;1.98;;;;;;;6.35;76.95;97666.66;4988468;28;20060;-70
2021/03/13 04:32:26;;;;;;;2.70;1.63;;;;;;;6.40;76.67;97647.13;4989378;28;20038;-69
2021/03/13 04:35:13;;;;;;;5.63;1.73;;;;;;;6.45;76.70;97652.88;4988127;28;20046;-68
2021/03/13 04:37:46;;;;;;;2.55;1.60;;;;;;;6.48;76.42;97649.22;4992581;28;20117;-68
2021/03/13 04:40:17;;;;;;;7.20;1.70;;;;;;;6.50;76.89;97641.25;4993360;28;20034;-68
2021/03/13 04:43:14;;;;;;;4.95;1.40;;;;;;;6.50;76.35;97644.72;4993609;28;20044;-68
2021/03/13 04:52:26;;;;;;;4.80;1.30;;;;;;;6.65;75.54;97596.56;4982704;28;20035;-68
2021/03/13 04:55:17;;;;;;;3.00;1.38;;;;;;;6.68;74.72;97581.59;4975511;28;20508;-68
2021/03/13 05:01:07;;;;;;;4.22;1.55;;;;;;;6.76;74.51;97585.34;4951611;29;20546;-68
2021/03/13 05:03:48;;;;;;;3.13;1.75;;;;;;;6.78;74.78;97595.72;4992742;28;20058;-68
2021/03/13 05:06:34;;;;;;;2.10;1.33;;;;;;;6.82;74.35;97563.97;4992745;28;20114;-68
2021/03/13 05:09:47;;;;;;;2.92;1.50;;;;;;;6.85;74.06;97570.78;4992652;28;20114;-68
2021/03/13 05:12:38;;;;;;;3.78;1.90;;;;;;;6.86;74.29;97561.97;4958188;28;20047;-68
2021/03/13 05:15:28;;;;;;;11.52;3.03;;;;;;;6.87;74.15;97571.53;4997612;28;20038;-69
2021/03/13 05:18:20;;;;;;;4.95;1.60;;;;;;;6.87;74.77;97555.81;4993318;28;20030;-70
2021/03/13 05:20:59;;;;;;;3.67;1.80;;;;;;;6.86;74.28;97568.03;4992425;28;20038;-68
2021/03/13 05:23:30;;;;;;;2.53;1.40;;;;;;;6.90;74.48;97554.75;4992347;28;20113;-68
2021/03/13 05:29:22;;;;;;;5.88;2.20;;;;;;;6.87;74.33;97547.94;4982874;28;20065;-68
2021/03/13 05:32:26;;;;;;;;;;;;;;;;;;;;;
2021/03/13 05:34:58;;;;;;;3.50;1.33;;;;;;;6.85;75.12;97518.41;4911535;29;20471;-70
2021/03/13 05:37:38;;;;;;;4.30;2.13;;;;;;;6.84;74.86;97512.34;4896661;29;20046;-69
2021/03/13 05:40:16;;;;;;;4.10;1.52;;;;;;;6.85;75.06;97498.28;4904969;29;20059;-69
2021/03/13 05:45:33;;;;;;;3.38;2.35;;;;;;;6.84;75.36;97499.25;4901738;29;20127;-68
2021/03/13 05:48:19;;;;;;;4.07;1.65;;;;;;;6.83;75.21;97501.97;4899077;29;20037;-70
2021/03/13 05:51:02;;;;;;;2.58;1.70;;;;;;;6.84;74.43;97493.13;4978326;28;20069;-69
2021/03/13 05:53:39;;;;;;;4.57;1.75;;;;;;;6.81;75.11;97488.13;4988440;28;20030;-70
2021/03/13 05:56:17;;;;;;;2.72;1.40;;;;;;;6.80;74.75;97474.19;4978799;28;20039;-70
2021/03/13 06:02:30;;;;;;;4.25;1.70;;;;;;;6.81;74.93;97456.69;4955477;28;20041;-70
2021/03/13 06:05:39;;;;;;;;;;;;;;;;;;;;;
2021/03/13 06:14:42;;;;;;;3.70;1.70;;;;;;;6.86;75.00;97470.31;4976412;28;20046;-71
2021/03/13 06:17:16;;;;;;;2.40;1.52;;;;;;;6.92;74.42;97462.03;4969488;28;20037;-72
2021/03/13 06:23:45;;;;;;;4.88;2.30;;;;;;;6.92;74.22;97445.47;4975536;28;20093;-69
2021/03/13 06:26:30;;;;;;;1.65;1.48;;;;;;;6.93;74.33;97441.91;4957648;28;20118;-68
2021/03/13 06:32:55;;;;;;;1.33;1.10;;;;;;;6.87;74.17;97428.31;4979726;28;20100;-70
2021/03/13 06:35:30;;;;;;;2.45;1.10;;;;;;;6.86;74.85;97418.75;4976316;28;20046;-69
2021/03/13 06:49:15;;;;;;;4.65;1.20;;;;;;;6.97;74.52;97414.53;4747474;29;20121;-69
2021/03/13 07:06:13;;;;;;;;;;;;;;;;;;;;;
2021/03/13 07:16:22;;;;;;;1.60;1.00;;;;;;;6.96;76.05;97454.75;4341665;30;5007851;-69
2021/03/13 07:18:49;;;;;;;7.40;2.20;;;;;;;6.87;79.44;97545.31;4855903;28;20283;-68
2021/03/13 07:21:16;;;;;;;2.63;1.30;;;;;;;6.27;81.30;97575.59;4952183;28;20051;-69
2021/03/13 07:23:49;;;;;;;1.60;1.00;;;;;;;5.78;79.25;97569.22;4951819;28;20046;-70
2021/03/13 07:26:16;;;;;;;3.85;1.30;;;;;;;5.40;80.02;97576.06;4951374;28;20027;-72
2021/03/13 07:28:43;;;;;;;3.72;1.42;;;;;;;5.19;80.61;97568.63;4982010;28;20051;-68
2021/03/13 07:31:10;;;;;;;3.60;1.20;;;;;;;5.08;78.64;97555.44;4952273;28;20398;-72
2021/03/13 07:33:40;;;;;;;2.90;1.33;;;;;;;5.06;77.25;97550.28;4966396;28;20066;-70
2021/03/13 07:36:26;;;;;;;1.17;1.05;;;;;;;5.10;75.54;97525.69;4973984;28;20050;-72
2021/03/13 07:38:57;;;;;;;1.35;1.13;;;;;;;5.14;76.40;97505.41;4952100;28;20035;-70
2021/03/13 07:41:23;;;;;;;1.50;1.35;;;;;;;5.21;74.67;97505.88;4952879;28;20054;-70
2021/03/13 07:43:50;;;;;;;2.88;1.20;;;;;;;5.26;74.94;97504.63;4953433;28;20556;-70
2021/03/13 07:46:15;;;;;;;3.03;1.50;;;;;;;5.32;75.09;97530.38;4953504;28;20027;-71
2021/03/13 07:48:41;;;;;;;3.15;1.10;;;;;;;5.41;74.43;97522.88;4951637;28;20035;-71
2021/03/13 07:51:08;;;;;;;3.15;1.30;;;;;;;5.54;73.89;97529.00;4955734;28;20031;-71
2021/03/13 07:53:40;;;;;;;1.98;1.33;;;;;;;5.64;74.25;97519.59;4971324;28;20406;-72
2021/03/13 07:56:10;;;;;;;2.65;1.23;;;;;;;5.68;73.89;97512.38;4961497;28;20031;-71
2021/03/13 07:59:19;;;;;;;1.50;1.17;;;;;;;5.75;75.10;97530.19;4951843;28;20122;-71
2021/03/13 08:05:29;;;;;;;5.68;1.60;;;;;;;5.96;73.87;97534.97;4977822;28;20049;-70
2021/03/13 08:07:57;;;;;;;3.38;1.45;;;;;;;6.06;72.50;97541.25;4970467;28;20041;-71
2021/03/13 08:10:46;;;;;;;2.90;1.65;;;;;;;6.17;72.14;97537.91;4974457;28;20037;-70
2021/03/13 08:13:33;;;;;;;5.32;3.00;;;;;;;6.26;73.05;97531.22;4993791;28;20042;-70
2021/03/13 08:16:05;;;;;;;3.38;1.40;;;;;;;6.32;71.86;97541.28;4994041;28;20077;-69
2021/03/13 08:18:57;;;;;;;6.35;1.50;;;;;;;6.43;70.46;97541.38;4993452;28;20050;-70
2021/03/13 08:21:23;;;;;;;3.05;1.75;;;;;;;6.45;69.20;97542.13;4984495;28;20653;-70
2021/03/13 08:23:56;;;;;;;3.42;2.08;;;;;;;6.51;69.25;97543.47;4955969;28;20035;-70
2021/03/13 08:26:52;;;;;;;11.80;2.35;;;;;;;6.58;68.62;97544.72;4953695;28;20039;-71
2021/03/13 08:33:28;;;;;;;4.78;1.77;;;;;;;6.60;66.71;97532.38;4998159;28;20104;-71
2021/03/13 08:46:47;;;;;;;8.13;2.13;;;;;;;6.61;66.87;97562.84;4948841;28;20038;-71
2021/03/13 08:49:58;;;;;;;6.18;1.80;;;;;;;6.61;66.55;97553.19;4975793;28;20085;-70
2021/03/13 08:52:38;;;;;;;5.43;2.47;;;;;;;6.56;66.31;97555.28;4993249;28;20034;-70
2021/03/13 08:55:53;;;;;;;12.23;3.53;;;;;;;6.55;66.21;97561.50;4992894;28;20034;-71
2021/03/13 09:01:34;;;;;;;5.43;2.15;;;;;;;6.55;66.06;97558.88;4993199;28;20081;-71
2021/03/13 09:04:27;;;;;;;6.78;2.72;;;;;;;6.52;67.22;97558.22;4992668;28;20054;-71
2021/03/13 09:11:02;;;;;;;9.65;2.33;;;;;;;6.50;67.31;97547.00;4900260;29;20059;-73
2021/03/13 09:14:23;;;;;;;7.45;1.80;;;;;;;6.46;65.75;97533.31;4922805;28;20097;-70
2021/03/13 09:37:55;;;;;;;9.32;3.92;;;;;;;7.56;59.88;97523.81;4994341;28;20060;-69
2021/03/13 09:40:54;;;;;;;7.22;2.13;;;;;;;7.87;58.39;97538.94;4995230;28;20061;-71
2021/03/13 14:04:37;;;;;;;8.90;3.40;;;;;;;8.78;52.17;97593.34;5007596;28;20463;-70
2021/03/13 14:07:03;;;;;;;10.15;3.50;;;;;;;8.86;52.91;97602.41;4992704;28;20026;-69
2021/03/13 14:09:28;;;;;;;14.50;3.80;;;;;;;8.98;51.83;97619.88;4995259;28;20034;-70
2021/03/13 14:11:54;;;;;;;7.82;3.03;;;;;;;9.49;55.21;97608.84;5007749;28;20061;-50
2021/03/13 14:14:20;;;;;;;10.25;3.90;;;;;;;10.30;48.26;97606.69;5007790;28;20037;-47
2021/03/13 14:20:44;;;;;;;10.27;3.55;;;;;;;10.69;45.97;97614.84;4988293;28;20072;-52
2021/03/13 14:23:09;;;;;;;9.50;3.75;;;;;;;10.94;45.09;97626.78;4993690;28;20033;-51
2021/03/13 14:25:35;;;;;;;7.07;3.38;;;;;;;11.14;43.57;97635.63;4996373;28;20065;-49
2021/03/13 14:28:00;;;;;;;10.93;3.30;;;;;;;11.25;42.68;97629.41;5008466;28;20139;-46
2021/03/13 14:30:27;;;;;;;10.15;2.97;;;;;;;11.48;40.61;97616.88;5008060;28;20038;-51
2021/03/13 14:32:52;;;;;;;9.77;3.67;;;;;;;11.67;40.23;97627.47;5008075;28;20726;-52
2021/03/13 14:35:20;;;;;;;12.82;2.95;;;;;;;11.25;40.24;97630.25;5002501;28;20160;-69
2021/03/13 14:37:47;;;;;;;12.63;3.85;;;;;;;10.80;41.24;97642.94;5014820;28;20077;-69
2021/03/13 14:40:14;;;;;;;9.77;3.28;;;;;;;10.45;43.23;97649.34;5006586;28;20036;-71
2021/03/13 14:42:41;;;;;;;9.98;3.80;;;;;;;10.29;42.57;97660.34;4989017;28;20371;-70
2021/03/13 14:45:07;;;;;;;9.77;3.85;;;;;;;10.20;43.30;97653.97;5004356;28;20033;-70
2021/03/13 14:47:33;;;;;;;9.98;4.03;;;;;;;10.31;43.67;97653.97;5008343;28;20107;-71
2021/03/13 14:49:59;;;;;;;11.40;3.50;;;;;;;10.40;44.68;97668.16;5007509;28;20494;-69
2021/03/13 14:52:24;;;;;;;14.15;3.80;;;;;;;10.41;43.52;97684.81;5007782;28;20116;-69
2021/03/13 14:54:50;;;;;;;10.80;3.72;;;;;;;10.28;43.92;97674.44;4991704;28;20041;-71
2021/03/13 14:57:15;;;;;;;13.95;3.38;;;;;;;9.98;43.89;97698.81;4991589;28;20030;-71
2021/03/13 14:59:41;;;;;;;9.75;3.45;;;;;;;9.81;44.31;97671.22;5011975;28;20026;-68
2021/03/13 15:02:08;;;;;;;17.73;5.18;;;;;;;9.63;44.06;97721.69;4989637;28;20092;-68
2021/03/13 15:04:33;;;;;;;12.52;3.30;;;;;;;9.54;43.37;97703.16;4998721;28;20042;-69
2021/03/13 15:06:59;;;;;;;7.65;2.85;;;;;;;9.53;44.10;97704.97;5014274;28;20064;-70
2021/03/13 15:09:24;;;;;;;9.18;3.95;;;;;;;9.48;44.95;97695.78;5016977;28;20549;-70
2021/03/13 15:11:49;;;;;;;11.38;3.83;;;;;;;9.40;45.79;97702.47;5017203;28;20026;-72
2021/03/13 15:14:15;;;;;;;14.00;5.50;;;;;;;9.37;45.88;97709.75;5008840;28;20096;-67
2021/03/13 15:16:40;;;;;;;12.48;3.30;;;;;;;9.33;46.61;97698.63;4992938;28;20096;-68
2021/03/13 15:19:06;;;;;;;12.10;3.63;;;;;;;9.32;46.37;97711.91;5003916;28;20052;-70
2021/03/13 15:21:31;;;;;;;14.57;4.20;;;;;;;9.24;47.75;97713.31;5009647;28;20045;-70
2021/03/13 15:23:57;;;;;;;11.82;3.63;;;;;;;9.19;47.39;97712.84;5008211;28;20144;-71
2021/03/13 15:26:22;;;;;;;10.77;3.05;;;;;;;9.22;46.97;97731.00;5009428;28;20101;-73
2021/03/13 15:28:47;;;;;;;15.52;3.90;;;;;;;9.20;47.59;97738.16;5010134;28;20041;-69
2021/03/13 15:31:13;;;;;;;14.27;3.25;;;;;;;9.21;47.43;97734.59;5010380;28;20025;-69
2021/03/13 15:33:38;;;;;;;11.70;3.55;;;;;;;9.16;47.29;97715.72;5010224;28;20041;-71
2021/03/13 15:36:04;;;;;;;10.43;3.17;;;;;;;9.16;46.95;97754.31;5006733;28;20034;-69
2021/03/13 15:38:29;;;;;;;14.93;4.63;;;;;;;9.16;46.67;97755.16;4990667;28;20501;-71
2021/03/13 15:40:57;;;;;;;13.52;3.53;;;;;;;9.13;47.39;97738.75;4998403;28;20042;-69
2021/03/13 15:43:25;;;;;;;10.38;2.65;;;;;;;9.03;47.09;97736.84;4993360;28;20485;-71
2021/03/13 15:45:50;;;;;;;9.35;2.95;;;;;;;8.97;48.25;97758.31;4977177;28;20073;-70
2021/03/13 15:48:16;;;;;;;12.40;2.70;;;;;;;8.93;47.37;97771.81;5010486;28;20105;-71
2021/03/13 15:50:42;;;;;;;10.73;3.67;;;;;;;8.87;48.33;97769.66;4991964;28;20084;-70
2021/03/13 15:53:08;;;;;;;8.02;2.75;;;;;;;8.88;48.78;97773.94;5009319;28;20057;-69
2021/03/13 15:55:33;;;;;;;5.88;2.45;;;;;;;8.75;48.50;97782.72;5009623;28;20041;-71
2021/03/13 15:57:59;;;;;;;6.57;3.13;;;;;;;8.52;50.35;97787.06;5009763;28;20052;-69
2021/03/13 16:00:25;;;;;;;8.02;2.60;;;;;;;8.33;52.61;97787.50;5008855;28;20073;-71
2021/03/13 16:02:51;;;;;;;6.55;2.47;;;;;;;8.16;55.17;97793.13;5009549;28;20037;-71
2021/03/13 16:05:16;;;;;;;4.95;2.15;;;;;;;7.85;55.00;97800.56;5009688;28;20061;-70
2021/03/13 16:07:42;;;;;;;6.50;2.35;;;;;;;7.63;56.23;97790.72;4999764;28;20038;-71
2021/03/13 16:10:08;;;;;;;10.15;2.58;;;;;;;7.64;56.42;97792.41;4972432;28;20100;-71
2021/03/13 16:12:34;;;;;;;8.30;2.38;;;;;;;7.68;56.54;97785.16;4988961;28;20041;-70
2021/03/13 16:15:00;;;;;;;8.35;2.63;;;;;;;7.67;57.73;97784.31;4990310;28;20034;-70
2021/03/13 16:17:25;;;;;;;8.02;2.78;;;;;;;7.64;56.64;97791.56;4972654;28;20650;-71
2021/03/13 16:19:51;;;;;;;11.80;4.35;;;;;;;7.59;57.29;97794.50;4990086;28;20046;-70
2021/03/13 16:22:16;;;;;;;12.95;3.80;;;;;;;7.59;56.96;97791.88;4990342;28;20114;-70
2021/03/13 16:24:41;;;;;;;9.23;3.50;;;;;;;7.59;56.05;97789.25;4989642;28;20031;-70
2021/03/13 16:27:07;;;;;;;10.75;3.60;;;;;;;7.63;54.15;97784.63;4989546;28;20041;-69
2021/03/13 16:29:37;;;;;;;9.82;3.60;;;;;;;7.71;54.92;97784.94;4972946;28;20042;-69
2021/03/13 16:32:03;;;;;;;15.70;4.40;;;;;;;7.81;54.57;97785.97;4992837;28;20406;-69
2021/03/13 16:34:31;;;;;;;12.50;3.75;;;;;;;7.91;52.94;97794.03;4993050;28;20038;-69
2021/03/13 16:36:56;;;;;;;9.10;4.15;;;;;;;8.00;53.00;97800.41;4975999;28;20125;-69
2021/03/13 16:39:22;;;;;;;11.18;3.45;;;;;;;8.05;52.22;97796.53;4993472;28;20505;-68
2021/03/13 16:41:47;;;;;;;8.95;2.78;;;;;;;7.99;51.88;97812.69;4993511;28;20035;-69
2021/03/13 16:44:13;;;;;;;10.73;2.75;;;;;;;8.00;51.78;97803.03;4994308;28;20038;-69
2021/03/13 16:46:38;;;;;;;11.10;4.10;;;;;;;7.94;51.56;97797.28;4993223;28;20061;-69
2021/03/13 16:49:03;;;;;;;12.93;3.97;;;;;;;7.91;52.26;97817.66;4993071;28;20110;-69
2021/03/13 16:51:31;;;;;;;16.02;3.65;;;;;;;7.90;52.39;97811.56;4993389;28;20169;-70
2021/03/13 16:53:56;;;;;;;9.70;3.25;;;;;;;7.83;52.56;97806.88;4995431;28;20034;-69
2021/03/13 16:56:21;;;;;;;11.98;3.72;;;;;;;7.71;53.48;97816.41;4993663;28;20130;-70
2021/03/13 16:58:47;;;;;;;9.82;3.95;;;;;;;7.65;53.93;97819.44;4993832;28;20092;-69
2021/03/13 17:01:12;;;;;;;12.55;2.92;;;;;;;7.61;54.12;97818.84;4992835;28;20030;-69
2021/03/13 17:03:38;;;;;;;13.43;3.75;;;;;;;7.55;54.30;97816.63;4993235;28;20085;-67
2021/03/13 17:06:03;;;;;;;13.18;3.22;;;;;;;7.52;54.67;97817.66;4992225;28;20117;-69
2021/03/13 17:08:28;;;;;;;7.85;3.17;;;;;;;7.47;54.88;97816.31;4993185;28;20132;-70
2021/03/13 17:10:54;;;;;;;15.48;3.88;;;;;;;7.41;54.77;97814.97;4992294;28;20038;-68
2021/03/13 17:13:19;;;;;;;8.85;3.03;;;;;;;7.38;55.16;97819.56;5000795;28;20548;-69
2021/03/13 17:15:46;;;;;;;8.52;3.33;;;;;;;7.36;55.19;97816.19;5013068;28;20040;-69
2021/03/13 17:18:12;;;;;;;13.07;3.97;;;;;;;7.34;55.19;97824.19;5013774;28;20489;-68
2021/03/13 17:20:37;;;;;;;11.43;4.80;;;;;;;7.28;55.42;97833.28;5014985;28;20033;-69
2021/03/13 17:23:03;;;;;;;9.20;3.80;;;;;;;7.27;55.51;97825.53;5015876;28;20402;-69
2021/03/13 17:25:28;;;;;;;9.10;3.00;;;;;;;7.24;55.38;97833.59;5010824;28;20121;-73
2021/03/13 17:27:53;;;;;;;9.30;3.85;;;;;;;7.21;55.51;97834.66;5012783;28;20033;-70
2021/03/13 17:30:19;;;;;;;20.20;4.97;;;;;;;7.22;55.39;97838.09;5032204;28;20167;-70
2021/03/13 17:32:45;;;;;;;10.80;4.18;;;;;;;7.22;55.67;97841.56;5030132;28;20033;-71
2021/03/13 17:35:10;;;;;;;17.92;5.65;;;;;;;7.24;55.08;97836.22;4993959;28;20088;-70
2021/03/13 17:37:36;;;;;;;16.70;3.67;;;;;;;7.25;55.68;97841.34;5020565;28;20341;-70
2021/03/13 17:40:08;;;;;;;17.98;4.82;;;;;;;7.27;55.22;97841.25;5013584;28;20037;-72
2021/03/13 17:42:34;;;;;;;12.52;5.28;;;;;;;7.25;54.23;97840.53;4991167;28;20038;-69
2021/03/13 17:44:59;;;;;;;8.30;3.50;;;;;;;7.26;54.59;97848.28;5025883;28;20022;-72
2021/03/13 17:47:26;;;;;;;13.25;4.03;;;;;;;7.28;54.26;97862.09;5009556;28;20121;-70
2021/03/13 17:49:52;;;;;;;10.27;3.55;;;;;;;7.26;53.89;97871.88;4992702;28;20375;-71
2021/03/13 17:52:18;;;;;;;11.43;3.28;;;;;;;7.29;53.17;97878.69;4999703;28;20438;-71
2021/03/13 17:54:43;;;;;;;10.95;3.03;;;;;;;7.30;52.98;97890.84;5012009;28;20116;-70
2021/03/13 17:57:09;;;;;;;11.73;3.95;;;;;;;7.27;52.78;97893.69;5011738;28;20121;-72
2021/03/13 17:59:34;;;;;;;8.90;2.92;;;;;;;7.25;52.26;97900.78;5017896;28;20049;-70
2021/03/13 18:01:59;;;;;;;11.95;3.40;;;;;;;7.22;52.57;97895.75;5023215;28;20060;-69
2021/03/13 18:04:25;;;;;;;11.55;2.92;;;;;;;7.14;51.92;97906.75;5004003;28;20045;-72
2021/03/13 18:06:50;;;;;;;8.00;3.33;;;;;;;7.12;53.05;97923.53;4999621;28;20038;-68
2021/03/13 18:09:16;;;;;;;13.55;3.05;;;;;;;7.12;52.88;97924.34;4993537;28;20136;-71
2021/03/13 18:11:42;;;;;;;7.07;2.35;;;;;;;7.11;53.12;97922.66;5012206;28;20084;-70
2021/03/13 18:14:08;;;;;;;10.48;3.33;;;;;;;7.08;53.09;97933.34;5005627;28;20034;-71
2021/03/13 18:16:33;;;;;;;8.48;3.00;;;;;;;7.05;53.27;97921.28;5011306;28;20508;-70
2021/03/13 18:18:59;;;;;;;9.48;2.88;;;;;;;7.01;54.33;97932.88;5006950;28;20033;-72